Accueil
METAR-TAF:

METAR-TAF

Aéroports :

Watauga County Hospital Heliport

Boone, Caroline du Nord, États-Unis

latitude: 36-12N, longitude: 081-39W, altitude: 959 m

Observation

Le bulletin a été fait il y a 23 minutes, à 22:35 UTC
Vent 12 kt de ouest/nord-ouest avec des rafales jusqu'à 20 kt
Température 0°C
Humidité 69%
Pression 1013 hPa
Visibilité: 16.1 km

METAR: KTNB 282235Z AUTO 29012G20KT 10SM 00/M05 A2991 RMK AO2 T10051047

Heure: 17:58 (22:58 UTC)


TAF: absent

Observations et prévisions météorologiques de plus de 4000 aéroports (messages METAR et TAF).

Les stations disponibles sont représentées par des disques jaunes et rouges sur la carte.

Passer la souris dessus pour voir le nom de la station.

Cliquer dessus pour voir les observations et prévisions météorologiques.

Pour changer de carte: cliquez sur les boutons verts avec une croix noire pour zoomer, sur le bouton vert avec un tiret pour effectuer un zoom arrière, ou sur les flèches vertes pour les cartes adjacentes.


METAR-TAF: